createdAt,value
2018-06-20T00:02:09.644Z,99811.19
2018-06-20T00:04:39.004Z,99809.95
2018-06-20T00:07:09.153Z,99805.69
2018-06-20T00:09:38.546Z,99803.48
2018-06-20T00:12:07.961Z,99806.77
2018-06-20T00:14:37.344Z,99804.97
2018-06-20T00:17:06.787Z,99800.45
2018-06-20T00:19:36.224Z,99808.47
2018-06-20T00:22:05.644Z,99810.16
2018-06-20T00:24:35.056Z,99808.42
2018-06-20T00:27:04.445Z,99805.85
2018-06-20T00:29:34.504Z,99805.27
2018-06-20T00:32:03.859Z,99801.16
2018-06-20T00:34:33.216Z,99799.56
2018-06-20T00:37:02.634Z,99798.59
2018-06-20T00:39:32.040Z,99802.45
2018-06-20T00:42:01.385Z,99801.33
2018-06-20T00:44:30.951Z,99799.61
2018-06-20T00:47:00.349Z,99793.96
2018-06-20T00:49:29.720Z,99793.70
2018-06-20T00:51:59.080Z,99791.53
2018-06-20T00:54:28.741Z,99796.17
2018-06-20T00:56:59.044Z,99791.75
2018-06-20T00:59:28.423Z,99787.95
2018-06-20T01:01:57.786Z,99784.55
2018-06-20T01:04:27.145Z,99784.75
2018-06-20T01:06:58.220Z,99780.89
2018-06-20T01:09:27.706Z,99778.69
2018-06-20T01:11:57.136Z,99776.11
2018-06-20T01:14:26.625Z,99779.05
2018-06-20T01:16:56.183Z,99782.33
2018-06-20T01:19:25.550Z,99784.27
2018-06-20T01:21:54.928Z,99778.52
2018-06-20T01:24:24.279Z,99784.84
2018-06-20T01:26:53.601Z,99786.41
2018-06-20T01:29:23.107Z,99787.35
2018-06-20T01:31:52.489Z,99783.95
2018-06-20T01:34:21.968Z,99780.55
2018-06-20T01:36:51.354Z,99779.78
2018-06-20T01:39:20.785Z,99785.84
2018-06-20T01:41:50.106Z,99790.31
2018-06-20T01:44:19.493Z,99787.87
2018-06-20T01:46:49.718Z,99786.36
2018-06-20T01:49:19.031Z,99780.67
2018-06-20T01:51:48.368Z,99788.06
2018-06-20T01:54:17.721Z,99788.30
2018-06-20T01:56:47.040Z,99793.05
2018-06-20T01:59:16.424Z,99798.82
2018-06-20T02:01:45.796Z,99801.49
2018-06-20T02:04:15.196Z,99804.16
2018-06-20T02:06:44.608Z,99804.87
2018-06-20T02:09:13.944Z,99802.20
2018-06-20T02:11:43.289Z,99798.84
2018-06-20T02:14:12.644Z,99802.31
2018-06-20T02:16:42.050Z,99807.85
2018-06-20T02:19:11.384Z,99808.62
2018-06-20T02:21:41.150Z,99813.09
2018-06-20T02:24:10.492Z,99808.25
2018-06-20T02:26:39.872Z,99817.73
2018-06-20T02:29:09.521Z,99807.55
2018-06-20T02:31:38.921Z,99804.27
2018-06-20T02:34:08.267Z,99805.51
2018-06-20T02:36:37.651Z,99800.27
2018-06-20T02:39:08.540Z,99796.27
2018-06-20T02:41:38.733Z,99802.20
2018-06-20T02:44:08.080Z,99761.48
2018-06-20T02:46:37.460Z,99801.18
2018-06-20T02:49:06.980Z,99804.45
2018-06-20T02:51:36.356Z,99801.52
2018-06-20T02:54:06.192Z,99804.78
2018-06-20T02:56:35.557Z,99799.91
2018-06-20T02:59:04.906Z,99802.22
2018-06-20T03:01:34.246Z,99710.19
2018-06-20T03:04:03.608Z,99805.09
2018-06-20T03:06:32.946Z,99804.25
2018-06-20T03:09:02.924Z,99799.11
2018-06-20T03:11:32.294Z,99804.35
2018-06-20T03:14:01.628Z,99805.69
2018-06-20T03:16:31.010Z,99806.75
2018-06-20T03:19:00.396Z,99807.48
2018-06-20T03:21:29.727Z,99804.52
2018-06-20T03:23:59.092Z,99813.86
2018-06-20T03:26:28.541Z,99812.52
2018-06-20T03:28:58.670Z,99810.95
2018-06-20T03:31:29.774Z,99809.05
2018-06-20T03:33:59.145Z,99811.28
2018-06-20T03:36:28.480Z,99810.22
2018-06-20T03:38:57.963Z,99807.38
2018-06-20T03:41:30.755Z,99802.83
2018-06-20T03:44:00.953Z,99804.34
2018-06-20T03:46:30.348Z,99802.44
2018-06-20T03:49:00.101Z,99806.55
2018-06-20T03:51:29.470Z,99796.05
2018-06-20T03:53:58.819Z,99807.09
2018-06-20T03:56:28.173Z,99810.13
2018-06-20T03:58:57.545Z,99811.39
2018-06-20T04:01:27.096Z,99806.12
2018-06-20T04:03:56.554Z,99811.52
2018-06-20T04:06:25.917Z,99813.75
2018-06-20T04:08:58.637Z,99812.31
2018-06-20T04:11:28.044Z,99817.23
2018-06-20T04:13:57.420Z,99810.50
2018-06-20T04:16:26.784Z,99820.59
2018-06-20T04:18:56.229Z,99818.58
2018-06-20T04:21:25.566Z,99812.84
2018-06-20T04:23:54.945Z,99818.28
2018-06-20T04:26:24.289Z,99820.34
2018-06-20T04:28:53.658Z,99816.23
2018-06-20T04:31:22.981Z,99819.94
2018-06-20T04:33:52.320Z,99814.63
2018-06-20T04:36:21.667Z,99814.78
2018-06-20T04:38:51.043Z,99817.81
2018-06-20T04:41:20.380Z,99818.72
2018-06-20T04:43:49.732Z,99823.05
2018-06-20T04:46:19.075Z,99821.52
2018-06-20T04:48:48.447Z,99823.11
2018-06-20T04:51:17.959Z,99822.77
2018-06-20T04:53:47.312Z,99817.55
2018-06-20T04:56:16.744Z,99848.11
2018-06-20T04:58:46.292Z,99825.35
2018-06-20T05:01:15.623Z,99823.77
2018-06-20T05:03:45.029Z,99830.23
2018-06-20T05:06:14.497Z,99832.30
2018-06-20T05:08:43.856Z,99831.39
2018-06-20T05:11:13.323Z,99828.42
2018-06-20T05:13:43.159Z,99827.73
2018-06-20T05:16:12.531Z,99827.84
2018-06-20T05:18:42.715Z,99827.97
2018-06-20T05:21:12.071Z,99822.59
2018-06-20T05:23:41.603Z,99825.28
2018-06-20T05:26:10.964Z,99823.95
2018-06-20T05:28:40.316Z,99827.33
2018-06-20T05:31:11.050Z,99824.03
2018-06-20T05:33:40.397Z,99826.09
2018-06-20T05:36:09.742Z,99830.59
2018-06-20T05:38:39.099Z,99830.47
2018-06-20T05:41:08.491Z,99838.60
2018-06-20T05:43:37.892Z,99833.03
2018-06-20T05:46:07.231Z,99832.72
2018-06-20T05:48:36.656Z,99832.13
2018-06-20T05:51:06.326Z,99829.28
2018-06-20T05:53:36.198Z,99829.16
2018-06-20T05:56:05.624Z,99832.33
2018-06-20T05:58:34.985Z,99828.36
2018-06-20T06:01:04.373Z,99836.06
2018-06-20T06:03:33.739Z,99828.00
2018-06-20T06:06:16.019Z,99830.12
2018-06-20T06:08:46.099Z,99831.47
2018-06-20T06:11:15.475Z,99832.16
2018-06-20T06:13:44.858Z,99827.09
2018-06-20T06:16:14.204Z,99825.06
2018-06-20T06:18:43.599Z,99819.69
2018-06-20T06:21:12.991Z,99824.98
2018-06-20T06:23:42.348Z,99826.68
2018-06-20T06:26:11.726Z,99818.82
2018-06-20T06:28:41.100Z,99820.55
2018-06-20T06:31:10.485Z,99826.50
2018-06-20T06:33:39.893Z,99829.64
2018-06-20T06:36:09.284Z,99824.27
2018-06-20T06:38:38.637Z,99820.97
2018-06-20T06:41:08.046Z,99824.55
2018-06-20T06:43:37.386Z,99823.08
2018-06-20T06:46:07.293Z,99825.84
2018-06-20T06:48:36.628Z,99824.72
2018-06-20T06:51:06.018Z,99825.58
2018-06-20T06:53:35.395Z,99823.23
2018-06-20T06:56:04.929Z,99822.12
2018-06-20T06:58:34.529Z,99815.52
2018-06-20T07:01:03.920Z,99821.39
2018-06-20T07:03:35.055Z,99825.38
2018-06-20T07:06:04.421Z,99824.02
2018-06-20T07:11:02.004Z,99822.48
2018-06-20T07:13:31.342Z,99824.61
2018-06-20T07:16:00.672Z,99820.40
2018-06-20T07:18:30.035Z,99819.11
2018-06-20T07:20:59.356Z,99817.50
2018-06-20T07:23:28.751Z,99808.44
2018-06-20T07:25:58.098Z,99812.91
2018-06-20T07:28:27.455Z,99814.77
2018-06-20T07:30:56.857Z,99810.68
2018-06-20T07:33:26.334Z,99812.41
2018-06-20T07:35:55.849Z,99811.63
2018-06-20T07:38:25.270Z,99812.24
2018-06-20T07:40:54.912Z,99810.76
2018-06-20T07:43:24.262Z,99811.05
2018-06-20T07:45:53.929Z,99808.57
2018-06-20T07:48:23.305Z,99812.19
2018-06-20T07:50:52.713Z,99806.52
2018-06-20T07:53:22.487Z,99803.30
2018-06-20T07:55:51.881Z,99804.61
2018-06-20T07:58:26.416Z,99802.27
2018-06-20T08:01:00.966Z,99798.14
2018-06-20T08:05:40.440Z,99801.76
2018-06-20T08:08:15.173Z,99794.68
2018-06-20T08:10:49.941Z,99789.58
2018-06-20T08:13:24.489Z,99728.30
2018-06-20T08:15:59.098Z,99786.39
2018-06-20T08:18:33.763Z,99790.81
2018-06-20T08:21:04.190Z,99787.89
2018-06-20T08:23:33.606Z,99783.80
2018-06-20T08:26:02.971Z,99755.83
2018-06-20T08:28:32.349Z,99779.02
2018-06-20T08:31:01.751Z,99781.14
2018-06-20T08:33:31.200Z,99782.84
2018-06-20T08:36:00.602Z,99784.38
2018-06-20T08:38:29.956Z,99775.03
2018-06-20T08:40:59.326Z,99772.47
2018-06-20T08:43:29.067Z,99782.10
2018-06-20T08:45:58.421Z,99780.28
2018-06-20T08:48:27.748Z,99780.93
2018-06-20T08:50:57.136Z,99768.53
2018-06-20T08:53:27.412Z,99782.55
2018-06-20T08:55:57.404Z,99777.03
2018-06-20T08:58:26.755Z,99777.14
2018-06-20T09:01:01.301Z,99770.23
2018-06-20T09:03:30.844Z,99764.69
2018-06-20T09:06:05.459Z,99765.27
2018-06-20T09:08:39.901Z,99768.48
2018-06-20T09:11:14.683Z,99759.38
2018-06-20T09:13:49.236Z,99765.47
2018-06-20T09:16:23.809Z,99761.30
2018-06-20T09:18:58.552Z,99761.17
2018-06-20T09:21:27.930Z,99762.31
2018-06-20T09:23:57.306Z,99754.02
2018-06-20T09:26:27.578Z,99757.94
2018-06-20T09:28:56.956Z,99757.84
2018-06-20T09:31:26.321Z,99756.53
2018-06-20T09:33:55.648Z,99760.34
2018-06-20T09:36:25.035Z,99755.44
2018-06-20T09:38:54.385Z,99763.00
2018-06-20T09:41:23.947Z,99752.22
2018-06-20T09:43:53.319Z,99760.41
2018-06-20T09:46:22.840Z,99763.52
2018-06-20T09:48:52.217Z,99757.09
2018-06-20T09:51:21.564Z,99752.87
2018-06-20T09:53:50.979Z,99752.01
2018-06-20T09:56:20.372Z,99748.61
2018-06-20T09:58:49.771Z,99744.02
2018-06-20T10:01:24.375Z,99744.37
2018-06-20T10:03:59.140Z,99740.64
2018-06-20T10:06:33.740Z,99745.08
2018-06-20T10:09:08.452Z,99741.13
2018-06-20T10:11:43.001Z,99737.44
2018-06-20T10:14:13.433Z,99733.69
2018-06-20T10:16:43.576Z,99728.92
2018-06-20T10:19:18.421Z,99725.81
2018-06-20T10:21:47.831Z,99721.11
2018-06-20T10:24:17.507Z,99725.03
2018-06-20T10:26:46.981Z,99720.33
2018-06-20T10:29:17.057Z,99717.09
2018-06-20T10:31:46.856Z,99719.60
2018-06-20T10:34:16.236Z,99711.89
2018-06-20T10:36:45.749Z,99710.89
2018-06-20T10:39:15.748Z,99704.52
2018-06-20T10:41:45.119Z,99707.88
2018-06-20T10:44:15.788Z,99706.11
2018-06-20T10:46:50.499Z,99706.14
2018-06-20T10:49:20.463Z,99706.63
2018-06-20T10:51:50.083Z,99693.30
2018-06-20T10:54:19.630Z,99699.44
2018-06-20T10:56:54.992Z,99695.05
2018-06-20T10:59:29.444Z,99690.42
2018-06-20T11:02:04.000Z,99683.66
2018-06-20T11:04:38.525Z,99683.81
2018-06-20T11:07:13.040Z,99670.48
2018-06-20T11:09:47.802Z,99680.04
2018-06-20T11:12:22.508Z,99677.62
2018-06-20T11:14:52.657Z,99674.09
2018-06-20T11:17:22.078Z,99673.93
2018-06-20T11:19:51.468Z,99665.62
2018-06-20T11:22:20.895Z,99663.44
2018-06-20T11:24:50.242Z,99654.98
2018-06-20T11:27:19.648Z,99654.64
2018-06-20T11:29:49.399Z,99659.70
2018-06-20T11:32:18.772Z,99648.47
2018-06-20T11:34:48.195Z,99637.98
2018-06-20T11:37:17.697Z,99636.95
2018-06-20T11:39:47.088Z,99634.60
2018-06-20T11:42:16.467Z,99631.91
2018-06-20T11:44:45.788Z,99629.38
2018-06-20T11:47:20.351Z,99625.66
2018-06-20T11:49:49.744Z,99620.28
2018-06-20T11:52:24.460Z,99618.92
2018-06-20T11:54:57.982Z,99619.92
2018-06-20T11:57:29.685Z,99612.78
2018-06-20T12:00:04.344Z,99611.63
2018-06-20T12:04:40.553Z,99606.31
2018-06-20T12:07:15.259Z,99606.29
2018-06-20T12:09:49.818Z,99602.73
2018-06-20T12:12:24.480Z,99599.69
2018-06-20T12:14:59.145Z,99602.80
2018-06-20T12:17:33.798Z,99599.85
2018-06-20T12:20:11.429Z,99595.67
2018-06-20T12:22:46.136Z,99600.97
2018-06-20T12:25:20.680Z,99587.95
2018-06-20T12:27:55.245Z,99585.50
2018-06-20T12:30:29.819Z,99578.97
2018-06-20T12:33:04.486Z,99578.09
2018-06-20T12:35:39.164Z,99571.59
2018-06-20T12:38:13.724Z,99571.31
2018-06-20T12:40:48.317Z,99573.84
2018-06-20T12:43:23.060Z,99565.73
2018-06-20T12:46:10.280Z,99559.94
2018-06-20T12:48:39.958Z,99565.59
2018-06-20T12:51:09.312Z,99562.69
2018-06-20T12:53:38.768Z,99564.47
2018-06-20T12:56:08.130Z,99554.48
2018-06-20T12:58:37.496Z,99556.71
2018-06-20T13:01:06.880Z,99547.92
2018-06-20T13:03:36.257Z,99547.81
2018-06-20T13:06:05.641Z,99542.38
2018-06-20T13:08:35.006Z,99541.67
2018-06-20T13:11:04.343Z,99539.01
2018-06-20T13:13:33.709Z,99535.72
2018-06-20T13:16:03.923Z,99536.02
2018-06-20T13:18:33.367Z,99541.14
2018-06-20T13:21:02.903Z,99534.97
2018-06-20T13:23:32.346Z,99531.66
2018-06-20T13:26:01.724Z,99521.78
2018-06-20T13:28:31.087Z,99518.41
2018-06-20T13:31:05.646Z,99520.03
2018-06-20T13:35:46.721Z,99512.92
2018-06-20T13:38:21.455Z,99503.19
2018-06-20T13:40:56.195Z,99499.41
2018-06-20T13:43:30.868Z,99496.09
2018-06-20T13:46:05.440Z,99491.97
2018-06-20T13:48:35.866Z,99491.32
2018-06-20T13:51:05.344Z,99486.77
2018-06-20T13:53:34.868Z,99487.18
2018-06-20T13:56:04.421Z,99491.26
2018-06-20T13:58:34.148Z,99483.70
2018-06-20T14:01:03.540Z,99486.83
2018-06-20T14:03:32.887Z,99478.13
2018-06-20T14:06:02.257Z,99471.62
2018-06-20T14:08:31.625Z,99477.29
2018-06-20T14:11:00.977Z,99472.81
2018-06-20T14:13:30.389Z,99477.48
2018-06-20T14:15:59.771Z,99476.91
2018-06-20T14:18:29.145Z,99473.38
2018-06-20T14:21:03.657Z,99467.40
2018-06-20T14:23:33.723Z,99460.53
2018-06-20T14:26:03.064Z,99457.54
2018-06-20T14:28:32.445Z,99456.20
2018-06-20T14:31:06.983Z,99452.94
2018-06-20T14:33:41.647Z,99450.52
2018-06-20T14:36:16.173Z,99451.17
2018-06-20T14:38:51.097Z,99455.11
2018-06-20T14:41:21.881Z,99443.19
2018-06-20T14:43:56.461Z,99442.68
2018-06-20T14:46:27.217Z,99443.54
2018-06-20T14:48:56.613Z,99441.00
2018-06-20T14:51:25.956Z,99440.95
2018-06-20T14:53:55.304Z,99434.16
2018-06-20T14:56:24.646Z,99437.25
2018-06-20T14:58:53.981Z,99433.84
2018-06-20T15:01:23.765Z,99438.05
2018-06-20T15:03:53.123Z,99424.52
2018-06-20T15:06:22.512Z,99429.23
2018-06-20T15:08:51.868Z,99419.30
2018-06-20T15:11:21.208Z,99415.03
2018-06-20T15:13:50.595Z,99420.95
2018-06-20T15:16:25.252Z,99415.66
2018-06-20T15:18:54.608Z,99414.72
2018-06-20T15:21:23.965Z,99412.77
2018-06-20T15:23:53.301Z,99407.26
2018-06-20T15:26:27.974Z,99401.14
2018-06-20T15:29:02.552Z,99401.33
2018-06-20T15:31:37.089Z,99398.97
2018-06-20T15:34:11.664Z,99397.89
2018-06-20T15:36:46.160Z,99391.27
2018-06-20T15:39:15.561Z,99389.50
2018-06-20T15:41:44.921Z,99385.30
2018-06-20T15:44:14.284Z,99382.12
2018-06-20T15:46:43.730Z,99379.08
2018-06-20T15:49:13.142Z,99387.64
2018-06-20T15:51:42.516Z,99381.70
2018-06-20T15:54:11.955Z,99379.91
2018-06-20T15:56:41.466Z,99373.44
2018-06-20T15:59:10.852Z,99374.91
2018-06-20T16:01:40.237Z,99373.00
2018-06-20T16:04:09.632Z,99376.52
2018-06-20T16:06:39.212Z,99377.03
2018-06-20T16:09:17.078Z,99361.53
2018-06-20T16:11:46.569Z,99370.06
2018-06-20T16:14:16.032Z,99368.45
2018-06-20T16:16:45.427Z,99368.31
2018-06-20T16:19:20.909Z,99369.81
2018-06-20T16:21:55.446Z,99363.81
2018-06-20T16:24:30.016Z,99368.64
2018-06-20T16:27:04.544Z,99363.53
2018-06-20T16:29:39.152Z,99361.53
2018-06-20T16:32:08.538Z,99364.53
2018-06-20T16:34:39.067Z,99368.00
2018-06-20T16:37:08.411Z,99359.11
2018-06-20T16:39:37.793Z,99354.56
2018-06-20T16:42:07.202Z,99353.72
2018-06-20T16:44:37.020Z,99360.67
2018-06-20T16:47:06.623Z,99358.00
2018-06-20T16:49:36.032Z,99348.71
2018-06-20T16:52:05.463Z,99353.25
2018-06-20T16:54:34.840Z,99352.22
2018-06-20T16:57:04.225Z,99349.68
2018-06-20T16:59:33.786Z,99352.25
2018-06-20T17:02:08.586Z,99354.35
2018-06-20T17:04:37.951Z,99348.60
2018-06-20T17:07:07.375Z,99345.56
2018-06-20T17:09:36.772Z,99343.38
2018-06-20T17:12:11.602Z,99340.53
2018-06-20T17:14:46.323Z,99335.05
2018-06-20T17:17:20.884Z,99336.08
2018-06-20T17:19:55.569Z,99328.80
2018-06-20T17:22:30.160Z,99333.26
2018-06-20T17:25:04.913Z,99329.52
2018-06-20T17:27:34.265Z,99329.19
2018-06-20T17:30:04.577Z,99331.92
2018-06-20T17:32:35.327Z,99327.56
2018-06-20T17:35:05.352Z,99326.03
2018-06-20T17:37:34.734Z,99323.88
2018-06-20T17:40:04.487Z,99323.56
2018-06-20T17:42:33.844Z,99325.09
2018-06-20T17:45:03.360Z,99318.48
2018-06-20T17:47:34.483Z,99316.98
2018-06-20T17:50:04.061Z,99314.15
2018-06-20T17:52:33.440Z,99314.63
2018-06-20T17:55:03.394Z,99319.05
2018-06-20T17:57:32.901Z,99323.79
2018-06-20T18:00:02.274Z,99325.88
2018-06-20T18:02:32.661Z,99328.44
2018-06-20T18:05:07.677Z,99324.77
2018-06-20T18:07:42.272Z,99127.36
2018-06-20T18:10:16.928Z,99329.36
2018-06-20T18:12:51.436Z,99328.39
2018-06-20T18:15:25.990Z,99324.04
2018-06-20T18:17:55.419Z,99322.36
2018-06-20T18:20:25.519Z,99328.35
2018-06-20T18:22:54.919Z,99322.47
2018-06-20T18:25:24.336Z,99322.86
2018-06-20T18:27:53.844Z,99318.01
2018-06-20T18:30:23.220Z,99319.03
2018-06-20T18:32:52.691Z,99328.53
2018-06-20T18:35:22.078Z,99320.95
2018-06-20T18:37:51.494Z,99321.27
2018-06-20T18:40:20.896Z,99323.16
2018-06-20T18:42:50.270Z,99317.59
2018-06-20T18:45:19.635Z,99317.12
2018-06-20T18:47:54.254Z,99322.55
2018-06-20T18:50:23.644Z,99316.81
2018-06-20T18:52:53.029Z,99325.63
2018-06-20T18:55:22.393Z,99321.28
2018-06-20T18:57:57.524Z,99320.43
2018-06-20T19:00:32.265Z,99317.41
2018-06-20T19:03:07.233Z,99320.44
2018-06-20T19:05:41.942Z,99326.54
2018-06-20T19:08:16.712Z,99326.05
2018-06-20T19:10:46.103Z,99324.00
2018-06-20T19:13:15.610Z,99331.45
2018-06-20T19:15:45.152Z,99325.70
2018-06-20T19:18:14.533Z,99332.47
2018-06-20T19:20:43.946Z,99325.37
2018-06-20T19:23:13.329Z,99328.42
2018-06-20T19:25:42.808Z,99328.42
2018-06-20T19:28:12.183Z,99326.40
2018-06-20T19:30:41.871Z,99326.38
2018-06-20T19:33:11.361Z,99330.59
2018-06-20T19:35:40.798Z,99339.88
2018-06-20T19:38:10.196Z,99336.33
2018-06-20T19:40:39.627Z,99341.72
2018-06-20T19:43:09.134Z,99342.05
2018-06-20T19:45:40.671Z,99347.27
2018-06-20T19:48:10.027Z,99350.16
2018-06-20T19:50:39.415Z,99341.53
2018-06-20T19:53:10.041Z,99346.06
2018-06-20T19:55:39.500Z,99346.23
2018-06-20T19:58:09.800Z,99341.12
2018-06-20T20:00:39.223Z,99339.45
2018-06-20T20:03:09.540Z,99333.72
2018-06-20T20:05:38.996Z,99340.44
2018-06-20T20:08:08.385Z,99343.65
2018-06-20T20:10:37.795Z,99345.48
2018-06-20T20:13:07.177Z,99340.22
2018-06-20T20:15:36.607Z,99341.05
2018-06-20T20:18:06.088Z,99336.97
2018-06-20T20:20:35.652Z,99334.42
2018-06-20T20:23:05.280Z,99338.64
2018-06-20T20:25:35.166Z,99336.91
2018-06-20T20:28:05.656Z,99338.91
2018-06-20T20:30:35.045Z,99341.55
2018-06-20T20:33:04.487Z,99336.29
2018-06-20T20:35:33.859Z,99331.05
2018-06-20T20:38:05.213Z,99333.90
2018-06-20T20:40:35.729Z,99324.09
2018-06-20T20:43:05.621Z,99330.59
2018-06-20T20:45:35.890Z,99327.22
2018-06-20T20:48:05.420Z,99327.38
2018-06-20T20:50:34.889Z,99319.71
2018-06-20T20:53:04.291Z,99321.73
2018-06-20T20:55:33.780Z,99317.31
2018-06-20T20:58:03.297Z,99328.17
2018-06-20T21:00:33.236Z,99321.55
2018-06-20T21:03:02.598Z,99319.64
2018-06-20T21:05:33.220Z,99313.35
2018-06-20T21:08:02.940Z,99315.37
2018-06-20T21:10:33.756Z,99313.31
2018-06-20T21:13:04.284Z,99311.73
2018-06-20T21:15:33.818Z,99313.70
2018-06-20T21:18:03.238Z,99318.81
2018-06-20T21:20:32.747Z,99314.73
2018-06-20T21:23:02.258Z,99318.38
2018-06-20T21:25:31.934Z,99313.19
2018-06-20T21:28:01.342Z,99315.69
2018-06-20T21:30:30.992Z,99312.66
2018-06-20T21:33:00.809Z,99315.20
2018-06-20T21:35:30.612Z,99308.71
2018-06-20T21:38:00.328Z,99305.20
2018-06-20T21:40:29.717Z,99302.85
2018-06-20T21:42:59.206Z,99298.81
2018-06-20T21:45:28.586Z,99301.36
2018-06-20T21:47:58.172Z,99298.47
2018-06-20T21:50:27.556Z,99294.78
2018-06-20T21:52:57.672Z,99295.93
2018-06-20T21:55:27.958Z,99286.13
2018-06-20T21:57:57.335Z,99281.70
2018-06-20T22:00:27.980Z,99278.81
2018-06-20T22:02:58.896Z,99278.09
2018-06-20T22:05:28.848Z,99271.64
2018-06-20T22:07:58.232Z,99274.05
2018-06-20T22:10:28.887Z,99276.20
2018-06-20T22:12:58.276Z,99267.75
2018-06-20T22:15:29.512Z,99269.37
2018-06-20T22:17:59.832Z,99271.05
2018-06-20T22:20:30.968Z,99268.45
2018-06-20T22:23:01.194Z,99262.44
2018-06-20T22:25:31.673Z,99263.59
2018-06-20T22:28:01.974Z,99263.34
2018-06-20T22:30:31.440Z,99259.65
2018-06-20T22:33:02.755Z,99252.73
2018-06-20T22:35:32.433Z,99255.95
2018-06-20T22:38:02.707Z,99255.00
2018-06-20T22:40:32.129Z,99250.28
2018-06-20T22:43:01.544Z,99247.69
2018-06-20T22:45:32.535Z,99248.35
2018-06-20T22:48:02.715Z,99247.69
2018-06-20T22:50:32.119Z,99241.77
2018-06-20T22:53:01.634Z,99238.74
2018-06-20T22:55:31.180Z,99236.88
2018-06-20T22:58:00.578Z,99239.94
2018-06-20T23:00:29.949Z,99236.11
2018-06-20T23:02:59.340Z,99237.59
2018-06-20T23:05:30.419Z,99235.05
2018-06-20T23:08:00.277Z,99231.55
2018-06-20T23:10:29.640Z,99227.17
2018-06-20T23:12:59.073Z,99226.84
2018-06-20T23:15:28.575Z,99220.06
2018-06-20T23:17:58.028Z,99218.91
2018-06-20T23:20:27.506Z,99218.23
2018-06-20T23:22:57.570Z,99211.75
2018-06-20T23:25:28.003Z,99213.16
2018-06-20T23:27:58.077Z,99204.36
2018-06-20T23:30:29.669Z,99200.19
2018-06-20T23:32:59.648Z,99203.97
2018-06-20T23:35:29.193Z,99207.57
2018-06-20T23:37:58.708Z,99207.57
2018-06-20T23:40:28.133Z,99202.59
2018-06-20T23:42:57.543Z,99196.77
2018-06-20T23:45:27.526Z,99194.47
2018-06-20T23:47:56.949Z,99191.80
2018-06-20T23:50:26.472Z,99191.17
2018-06-20T23:52:55.841Z,99191.59
2018-06-20T23:55:25.260Z,99184.68
2018-06-20T23:57:55.139Z,99184.59
